»·PEaware :: WAT169 KSAN-KLAS

WAT169 :: KSAN-KLAS

FLIGHT INFORMATION

Flight Status: Arrived
Operator:
Walker Air Transport
More flights by this operator :: More flights under this callsign
Pilot: Marty P. (27464)
Aircraft: BOEING 737-800
(B738)
More flights by this aircraft type
Origin: KSAN San Diego Intl-Lindbergh
United States
Destination: KLAS McCarran Intl
United States
More flights between these airports :: More routes between these airports
Route: PADRZ2 CHKNN SEBBY YELAH MISEN KEPEC6
File this flight plan on PilotEdge
Remarks:
Altitude:
(Current/Filed)
32,000ft
Speed:
(Current/Filed)
480kts
Departed: 01-Aug-20 07:42 PM
Arrived: 01-Aug-20 08:33 PM
Distance/Time
Traveled:
225nm/0:51
Distance/Time
To Go:
Arrived

Flight Plot

Page will automatically refresh every two minutes.

Flight plan parsing failed; only flown route is shown


Map Options




Map Legend


Flown Route
Filed Route
Departure Airport
Arrival Airport
Navaid (VOR, NDB)
Fix

Horizontal Profiles

Position Reports

Time Latitude Longitude Heading Altitude Ground
Speed
01-Aug-20 19:13 32.733216 -117.196884 134 27ft 0kts
01-Aug-20 19:14 32.733216 -117.196884 134 27ft 0kts
01-Aug-20 19:15 32.733216 -117.196884 134 27ft 0kts
01-Aug-20 19:16 32.733216 -117.196884 134 27ft 0kts
01-Aug-20 19:17 32.733216 -117.196884 134 27ft 0kts
01-Aug-20 19:18 32.733216 -117.196884 134 27ft 0kts
01-Aug-20 19:19 32.733216 -117.196884 134 27ft 0kts
01-Aug-20 19:20 32.733216 -117.196884 134 27ft 0kts
01-Aug-20 19:21 32.733216 -117.196884 134 27ft 0kts
01-Aug-20 19:22 32.733216 -117.196884 134 27ft 0kts
01-Aug-20 19:23 32.733280 -117.196999 98 27ft 2kts
01-Aug-20 19:24 32.733396 -117.197164 18 27ft 3kts
01-Aug-20 19:25 32.733513 -117.197115 21 27ft 1kts
01-Aug-20 19:26 32.733537 -117.197104 20 27ft 0kts
01-Aug-20 19:27 32.733537 -117.197104 20 27ft 0kts
01-Aug-20 19:28 32.733537 -117.197104 20 27ft 0kts
01-Aug-20 19:29 32.733537 -117.197104 20 27ft 0kts
01-Aug-20 19:30 32.733537 -117.197104 20 27ft 0kts
01-Aug-20 19:31 32.733537 -117.197104 20 27ft 0kts
01-Aug-20 19:32 32.733537 -117.197104 20 27ft 0kts
01-Aug-20 19:33 32.733537 -117.197104 20 27ft 0kts
01-Aug-20 19:34 32.734021 -117.195885 104 27ft 12kts
01-Aug-20 19:35 32.732792 -117.190801 106 27ft 15kts
01-Aug-20 19:36 32.731768 -117.186512 106 27ft 11kts
01-Aug-20 19:37 32.730899 -117.182962 106 27ft 13kts
01-Aug-20 19:38 32.729933 -117.178986 106 27ft 11kts
01-Aug-20 19:39 32.729496 -117.176769 72 27ft 0kts
01-Aug-20 19:40 32.729897 -117.175882 15 27ft 9kts
01-Aug-20 19:41 32.736334 -117.201120 286 139ft 192kts
01-Aug-20 19:42 32.766979 -117.258500 298 2356ft 252kts
01-Aug-20 19:43 32.804186 -117.325466 306 6367ft 246kts
01-Aug-20 19:44 32.847348 -117.390157 307 9639ft 257kts
01-Aug-20 19:46 32.894211 -117.461058 306 11694ft 307kts
01-Aug-20 19:47 32.952326 -117.551493 305 13044ft 371kts
01-Aug-20 19:48 33.014940 -117.652215 305 16212ft 391kts
01-Aug-20 19:49 33.087492 -117.753159 317 18971ft 411kts
01-Aug-20 19:50 33.174926 -117.842615 318 21508ft 423kts
01-Aug-20 19:51 33.267164 -117.933699 319 23012ft 438kts
01-Aug-20 19:52 33.365790 -118.029802 319 23025ft 467kts
01-Aug-20 19:53 33.472968 -118.112551 345 25384ft 457kts
01-Aug-20 19:54 33.594234 -118.083684 32 27865ft 458kts
01-Aug-20 19:55 33.687850 -117.994427 39 31821ft 407kts
01-Aug-20 19:56 33.775286 -117.898021 41 31991ft 451kts
01-Aug-20 19:57 33.870154 -117.789348 42 31991ft 490kts
01-Aug-20 19:58 33.968646 -117.675580 42 31990ft 487kts
01-Aug-20 19:59 34.067112 -117.561546 42 31989ft 492kts
01-Aug-20 20:00 34.164837 -117.448186 41 32018ft 491kts
01-Aug-20 20:00 34.247030 -117.352732 41 32050ft 492kts
01-Aug-20 20:02 34.360674 -117.220624 42 32054ft 492kts
01-Aug-20 20:03 34.459188 -117.105935 42 32055ft 492kts
01-Aug-20 20:03 34.541370 -117.010156 41 32079ft 492kts
01-Aug-20 20:05 34.655101 -116.877418 41 32112ft 479kts
01-Aug-20 20:06 34.751586 -116.764714 41 32102ft 483kts
01-Aug-20 20:06 34.781408 -116.729840 41 32074ft 483kts
01-Aug-20 20:07 34.876445 -116.623928 36 30153ft 480kts
01-Aug-20 20:09 34.995697 -116.507857 36 26658ft 463kts
01-Aug-20 20:09 35.055751 -116.449522 36 25178ft 448kts
01-Aug-20 20:10 35.138169 -116.358186 43 23971ft 432kts
01-Aug-20 20:11 35.222347 -116.253560 44 23856ft 431kts
01-Aug-20 20:12 35.304609 -116.150515 44 21362ft 416kts
01-Aug-20 20:13 35.383907 -116.050755 44 18981ft 401kts
01-Aug-20 20:14 35.460802 -115.953531 44 18063ft 404kts
01-Aug-20 20:15 35.536959 -115.857039 44 15745ft 391kts
01-Aug-20 20:16 35.611536 -115.762268 45 13745ft 364kts
01-Aug-20 20:17 35.679361 -115.685203 24 12958ft 339kts
01-Aug-20 20:18 35.758818 -115.617372 35 12174ft 353kts
01-Aug-20 20:19 35.844811 -115.540792 34 11174ft 383kts
01-Aug-20 20:20 35.927612 -115.467258 34 11001ft 337kts
01-Aug-20 20:21 35.989707 -115.412098 34 10989ft 296kts
01-Aug-20 20:22 36.028239 -115.331918 92 10665ft 281kts
01-Aug-20 20:23 36.020856 -115.232107 97 9379ft 296kts
01-Aug-20 20:24 36.013854 -115.132517 97 7920ft 290kts
01-Aug-20 20:25 36.007559 -115.034686 96 6104ft 280kts
01-Aug-20 20:26 36.002530 -114.948734 95 4961ft 210kts
01-Aug-20 20:27 36.044322 -114.920573 351 5049ft 196kts
01-Aug-20 20:28 36.073518 -114.963732 271 4882ft 168kts
01-Aug-20 20:29 36.073599 -115.016233 267 3928ft 149kts
01-Aug-20 20:30 36.073630 -115.067520 267 3150ft 152kts
01-Aug-20 20:31 36.073650 -115.119586 267 2343ft 150kts
01-Aug-20 20:32 36.073937 -115.143948 288 2191ft 15kts
01-Aug-20 20:33 36.074816 -115.146083 304 2191ft 4kts
01-Aug-20 20:34 36.077540 -115.146698 333 2191ft 12kts
01-Aug-20 20:35 36.079621 -115.147487 17 2191ft 3kts
01-Aug-20 20:36 36.079911 -115.147055 59 2191ft 0kts

Navigation Log

Ident Type
Flight plan parsing failed, navigation log unavailable